Fort Sheridan, Illinois
Current Conditions -  °F | °C
As of 5:52 PM on Tuesday 25 Nov 2014 (Local Time) from KPWK Reporting Station
Clear Clear  
Wind Chill: 16°   Ceiling: Unl
Heat Index: 22°   Visibility: 10mi
Dew Point: 15°   Wind: 5mph
Humidity: 75%   Direction: 260°W
Pressure: 30.18"   Gusts: NA
Location:  42.22°N, 87.81°W
Report Text: KPWK 252352Z 26004KT 10SM CLR M06/M09 A3018 RMK AO2 SLP229 T10561094 11022 21061 53008
Loading
Personal Weather Stations






























Interactive Weather Map New forecast layout! Learn more

10-Day Weather Forecast

Advertisements
Track Severe Weather on mobile